sensor_id;sensor_type;location;lat;lon;timestamp;P1;durP1;ratioP1;P2;durP2;ratioP2
68273;SDS011;55104;47.356;19.448;2023-04-24T00:01:43;6.60;;;2.58;;
68273;SDS011;55104;47.356;19.448;2023-04-24T00:04:46;8.33;;;2.80;;
68273;SDS011;55104;47.356;19.448;2023-04-24T00:07:48;6.82;;;2.30;;
68273;SDS011;55104;47.356;19.448;2023-04-24T00:10:50;9.23;;;3.05;;
68273;SDS011;55104;47.356;19.448;2023-04-24T00:13:53;6.22;;;2.40;;
68273;SDS011;55104;47.356;19.448;2023-04-24T00:16:55;9.00;;;2.88;;
68273;SDS011;55104;47.356;19.448;2023-04-24T00:19:58;7.23;;;2.67;;
68273;SDS011;55104;47.356;19.448;2023-04-24T00:23:00;6.53;;;2.58;;
68273;SDS011;55104;47.356;19.448;2023-04-24T00:26:02;8.05;;;2.85;;
68273;SDS011;55104;47.356;19.448;2023-04-24T00:29:04;6.75;;;2.30;;
68273;SDS011;55104;47.356;19.448;2023-04-24T00:32:06;7.00;;;2.95;;
68273;SDS011;55104;47.356;19.448;2023-04-24T00:35:08;7.43;;;2.40;;
68273;SDS011;55104;47.356;19.448;2023-04-24T00:38:11;5.70;;;2.05;;
68273;SDS011;55104;47.356;19.448;2023-04-24T00:41:13;7.88;;;3.13;;
68273;SDS011;55104;47.356;19.448;2023-04-24T00:44:15;8.60;;;2.58;;
68273;SDS011;55104;47.356;19.448;2023-04-24T00:47:17;6.60;;;2.55;;
68273;SDS011;55104;47.356;19.448;2023-04-24T00:50:26;6.83;;;2.57;;
68273;SDS011;55104;47.356;19.448;2023-04-24T00:53:28;6.20;;;2.13;;
68273;SDS011;55104;47.356;19.448;2023-04-24T00:56:30;7.28;;;2.42;;
68273;SDS011;55104;47.356;19.448;2023-04-24T00:59:32;7.78;;;3.08;;
68273;SDS011;55104;47.356;19.448;2023-04-24T01:02:34;8.60;;;3.08;;
68273;SDS011;55104;47.356;19.448;2023-04-24T01:05:37;7.40;;;2.60;;
68273;SDS011;55104;47.356;19.448;2023-04-24T01:08:40;10.30;;;3.13;;
68273;SDS011;55104;47.356;19.448;2023-04-24T01:11:43;11.52;;;3.00;;
68273;SDS011;55104;47.356;19.448;2023-04-24T01:14:46;7.15;;;2.67;;
68273;SDS011;55104;47.356;19.448;2023-04-24T01:17:49;6.10;;;2.20;;
68273;SDS011;55104;47.356;19.448;2023-04-24T01:20:53;5.80;;;2.20;;
68273;SDS011;55104;47.356;19.448;2023-04-24T01:23:58;11.15;;;2.63;;
68273;SDS011;55104;47.356;19.448;2023-04-24T01:27:00;7.00;;;2.50;;
68273;SDS011;55104;47.356;19.448;2023-04-24T01:30:03;5.57;;;2.67;;
68273;SDS011;55104;47.356;19.448;2023-04-24T01:33:06;6.40;;;2.47;;
68273;SDS011;55104;47.356;19.448;2023-04-24T01:36:09;7.80;;;2.40;;
68273;SDS011;55104;47.356;19.448;2023-04-24T01:39:12;11.55;;;2.90;;
68273;SDS011;55104;47.356;19.448;2023-04-24T01:42:15;6.63;;;2.35;;
68273;SDS011;55104;47.356;19.448;2023-04-24T01:45:20;7.15;;;2.92;;
68273;SDS011;55104;47.356;19.448;2023-04-24T01:48:22;8.30;;;2.63;;
68273;SDS011;55104;47.356;19.448;2023-04-24T01:51:26;7.90;;;2.77;;
68273;SDS011;55104;47.356;19.448;2023-04-24T01:54:28;9.32;;;2.67;;
68273;SDS011;55104;47.356;19.448;2023-04-24T01:57:30;7.82;;;2.55;;
68273;SDS011;55104;47.356;19.448;2023-04-24T02:00:33;6.30;;;2.30;;
68273;SDS011;55104;47.356;19.448;2023-04-24T02:03:36;8.18;;;2.72;;
68273;SDS011;55104;47.356;19.448;2023-04-24T02:06:38;8.97;;;2.70;;
68273;SDS011;55104;47.356;19.448;2023-04-24T02:09:41;8.27;;;2.70;;
68273;SDS011;55104;47.356;19.448;2023-04-24T02:12:43;7.80;;;3.00;;
68273;SDS011;55104;47.356;19.448;2023-04-24T02:15:45;9.52;;;3.33;;
68273;SDS011;55104;47.356;19.448;2023-04-24T02:18:47;9.93;;;3.17;;
68273;SDS011;55104;47.356;19.448;2023-04-24T02:21:49;7.03;;;2.57;;
68273;SDS011;55104;47.356;19.448;2023-04-24T02:24:52;7.95;;;3.38;;
68273;SDS011;55104;47.356;19.448;2023-04-24T02:27:54;7.25;;;3.00;;
68273;SDS011;55104;47.356;19.448;2023-04-24T02:30:56;7.68;;;3.25;;
68273;SDS011;55104;47.356;19.448;2023-04-24T02:33:58;8.98;;;3.45;;
68273;SDS011;55104;47.356;19.448;2023-04-24T02:37:00;9.33;;;3.67;;
68273;SDS011;55104;47.356;19.448;2023-04-24T02:40:02;10.43;;;3.53;;
68273;SDS011;55104;47.356;19.448;2023-04-24T02:43:04;7.13;;;3.20;;
68273;SDS011;55104;47.356;19.448;2023-04-24T02:46:06;9.25;;;2.90;;
68273;SDS011;55104;47.356;19.448;2023-04-24T02:49:09;8.10;;;3.30;;
68273;SDS011;55104;47.356;19.448;2023-04-24T02:52:11;10.07;;;2.93;;
68273;SDS011;55104;47.356;19.448;2023-04-24T02:55:13;10.57;;;3.17;;
68273;SDS011;55104;47.356;19.448;2023-04-24T02:58:15;8.90;;;3.67;;
68273;SDS011;55104;47.356;19.448;2023-04-24T03:01:17;8.57;;;4.10;;
68273;SDS011;55104;47.356;19.448;2023-04-24T03:04:20;8.65;;;4.07;;
68273;SDS011;55104;47.356;19.448;2023-04-24T03:07:24;10.00;;;3.33;;
68273;SDS011;55104;47.356;19.448;2023-04-24T03:10:26;10.38;;;3.45;;
68273;SDS011;55104;47.356;19.448;2023-04-24T03:13:28;8.85;;;3.70;;
68273;SDS011;55104;47.356;19.448;2023-04-24T03:16:30;8.65;;;2.95;;
68273;SDS011;55104;47.356;19.448;2023-04-24T03:19:32;9.27;;;3.28;;
68273;SDS011;55104;47.356;19.448;2023-04-24T03:22:39;7.80;;;3.07;;
68273;SDS011;55104;47.356;19.448;2023-04-24T03:25:42;11.30;;;3.53;;
68273;SDS011;55104;47.356;19.448;2023-04-24T03:28:46;7.47;;;2.85;;
68273;SDS011;55104;47.356;19.448;2023-04-24T03:31:48;8.45;;;3.03;;
68273;SDS011;55104;47.356;19.448;2023-04-24T03:34:51;7.47;;;3.28;;
68273;SDS011;55104;47.356;19.448;2023-04-24T03:37:54;7.37;;;3.40;;
68273;SDS011;55104;47.356;19.448;2023-04-24T03:41:19;8.13;;;3.30;;
68273;SDS011;55104;47.356;19.448;2023-04-24T03:44:28;9.13;;;3.63;;
68273;SDS011;55104;47.356;19.448;2023-04-24T03:47:30;8.10;;;2.92;;
68273;SDS011;55104;47.356;19.448;2023-04-24T03:50:39;12.27;;;3.75;;
68273;SDS011;55104;47.356;19.448;2023-04-24T03:53:44;8.00;;;4.03;;
68273;SDS011;55104;47.356;19.448;2023-04-24T03:56:50;7.47;;;3.22;;
68273;SDS011;55104;47.356;19.448;2023-04-24T03:59:52;9.43;;;3.35;;
68273;SDS011;55104;47.356;19.448;2023-04-24T04:02:55;7.22;;;3.47;;
68273;SDS011;55104;47.356;19.448;2023-04-24T04:05:57;8.27;;;3.67;;
68273;SDS011;55104;47.356;19.448;2023-04-24T04:09:00;8.27;;;3.37;;
68273;SDS011;55104;47.356;19.448;2023-04-24T04:12:03;7.25;;;3.05;;
68273;SDS011;55104;47.356;19.448;2023-04-24T04:15:07;8.90;;;3.30;;
68273;SDS011;55104;47.356;19.448;2023-04-24T04:18:10;8.05;;;3.20;;
68273;SDS011;55104;47.356;19.448;2023-04-24T04:21:12;7.65;;;2.90;;
68273;SDS011;55104;47.356;19.448;2023-04-24T04:24:15;8.43;;;3.33;;
68273;SDS011;55104;47.356;19.448;2023-04-24T04:27:19;8.38;;;3.85;;
68273;SDS011;55104;47.356;19.448;2023-04-24T04:30:30;7.13;;;2.60;;
68273;SDS011;55104;47.356;19.448;2023-04-24T04:33:37;10.48;;;3.17;;
68273;SDS011;55104;47.356;19.448;2023-04-24T04:36:42;8.73;;;3.47;;
68273;SDS011;55104;47.356;19.448;2023-04-24T04:40:13;7.63;;;3.20;;
68273;SDS011;55104;47.356;19.448;2023-04-24T04:43:24;7.40;;;3.30;;
68273;SDS011;55104;47.356;19.448;2023-04-24T04:46:28;11.98;;;3.97;;
68273;SDS011;55104;47.356;19.448;2023-04-24T04:49:41;9.70;;;4.00;;
68273;SDS011;55104;47.356;19.448;2023-04-24T04:52:53;8.20;;;3.20;;
68273;SDS011;55104;47.356;19.448;2023-04-24T04:56:02;8.17;;;3.47;;
68273;SDS011;55104;47.356;19.448;2023-04-24T04:59:12;8.05;;;3.60;;
68273;SDS011;55104;47.356;19.448;2023-04-24T05:02:15;8.65;;;3.20;;
68273;SDS011;55104;47.356;19.448;2023-04-24T05:05:18;7.70;;;3.45;;
68273;SDS011;55104;47.356;19.448;2023-04-24T05:08:20;10.60;;;3.63;;
68273;SDS011;55104;47.356;19.448;2023-04-24T05:11:28;9.75;;;4.55;;
68273;SDS011;55104;47.356;19.448;2023-04-24T05:14:32;8.45;;;3.78;;
68273;SDS011;55104;47.356;19.448;2023-04-24T05:17:34;7.32;;;3.47;;
68273;SDS011;55104;47.356;19.448;2023-04-24T05:20:37;8.50;;;3.80;;
68273;SDS011;55104;47.356;19.448;2023-04-24T05:23:39;10.37;;;3.57;;
68273;SDS011;55104;47.356;19.448;2023-04-24T05:26:41;11.80;;;3.80;;
68273;SDS011;55104;47.356;19.448;2023-04-24T05:29:44;10.07;;;4.60;;
68273;SDS011;55104;47.356;19.448;2023-04-24T05:32:47;11.65;;;4.53;;
68273;SDS011;55104;47.356;19.448;2023-04-24T05:35:49;11.10;;;4.38;;
68273;SDS011;55104;47.356;19.448;2023-04-24T05:38:52;7.63;;;3.35;;
68273;SDS011;55104;47.356;19.448;2023-04-24T05:41:54;8.90;;;3.85;;
68273;SDS011;55104;47.356;19.448;2023-04-24T05:44:59;9.32;;;4.03;;
68273;SDS011;55104;47.356;19.448;2023-04-24T05:48:02;11.02;;;4.28;;
68273;SDS011;55104;47.356;19.448;2023-04-24T05:51:04;10.00;;;4.18;;
68273;SDS011;55104;47.356;19.448;2023-04-24T05:54:06;8.52;;;3.65;;
68273;SDS011;55104;47.356;19.448;2023-04-24T05:57:09;9.95;;;3.85;;
68273;SDS011;55104;47.356;19.448;2023-04-24T06:00:23;12.38;;;3.78;;
68273;SDS011;55104;47.356;19.448;2023-04-24T06:03:34;7.03;;;2.90;;
68273;SDS011;55104;47.356;19.448;2023-04-24T06:06:37;7.88;;;3.85;;
68273;SDS011;55104;47.356;19.448;2023-04-24T06:09:39;7.82;;;3.67;;
68273;SDS011;55104;47.356;19.448;2023-04-24T06:12:43;9.32;;;4.00;;
68273;SDS011;55104;47.356;19.448;2023-04-24T06:15:50;8.07;;;2.97;;
68273;SDS011;55104;47.356;19.448;2023-04-24T06:19:02;8.40;;;3.47;;
68273;SDS011;55104;47.356;19.448;2023-04-24T06:22:04;8.85;;;3.50;;
68273;SDS011;55104;47.356;19.448;2023-04-24T06:25:06;7.88;;;3.35;;
68273;SDS011;55104;47.356;19.448;2023-04-24T06:28:09;8.05;;;3.47;;
68273;SDS011;55104;47.356;19.448;2023-04-24T06:31:11;8.18;;;3.20;;
68273;SDS011;55104;47.356;19.448;2023-04-24T06:34:13;7.00;;;3.10;;
68273;SDS011;55104;47.356;19.448;2023-04-24T06:37:15;9.05;;;3.78;;
68273;SDS011;55104;47.356;19.448;2023-04-24T06:40:17;9.77;;;4.35;;
68273;SDS011;55104;47.356;19.448;2023-04-24T06:43:23;10.48;;;3.65;;
68273;SDS011;55104;47.356;19.448;2023-04-24T06:46:24;6.70;;;2.50;;
68273;SDS011;55104;47.356;19.448;2023-04-24T06:49:29;10.60;;;3.63;;
68273;SDS011;55104;47.356;19.448;2023-04-24T06:52:31;8.98;;;3.80;;
68273;SDS011;55104;47.356;19.448;2023-04-24T06:55:35;7.90;;;3.05;;
68273;SDS011;55104;47.356;19.448;2023-04-24T06:58:37;9.13;;;3.85;;
68273;SDS011;55104;47.356;19.448;2023-04-24T07:01:40;8.80;;;3.45;;
68273;SDS011;55104;47.356;19.448;2023-04-24T07:04:42;8.10;;;3.73;;
68273;SDS011;55104;47.356;19.448;2023-04-24T07:07:44;9.63;;;3.45;;
68273;SDS011;55104;47.356;19.448;2023-04-24T07:10:48;9.40;;;3.70;;
68273;SDS011;55104;47.356;19.448;2023-04-24T07:13:51;9.18;;;3.42;;
68273;SDS011;55104;47.356;19.448;2023-04-24T07:16:53;8.38;;;3.10;;
68273;SDS011;55104;47.356;19.448;2023-04-24T07:19:55;7.67;;;3.00;;
68273;SDS011;55104;47.356;19.448;2023-04-24T07:22:57;10.65;;;3.17;;
68273;SDS011;55104;47.356;19.448;2023-04-24T07:25:59;7.85;;;3.78;;
68273;SDS011;55104;47.356;19.448;2023-04-24T07:29:01;11.75;;;3.55;;
68273;SDS011;55104;47.356;19.448;2023-04-24T07:32:03;8.07;;;2.92;;
68273;SDS011;55104;47.356;19.448;2023-04-24T07:35:05;9.43;;;3.63;;
68273;SDS011;55104;47.356;19.448;2023-04-24T07:38:08;8.48;;;3.50;;
68273;SDS011;55104;47.356;19.448;2023-04-24T07:41:10;7.60;;;3.30;;
68273;SDS011;55104;47.356;19.448;2023-04-24T07:44:12;8.27;;;3.60;;
68273;SDS011;55104;47.356;19.448;2023-04-24T07:47:14;9.75;;;3.88;;
68273;SDS011;55104;47.356;19.448;2023-04-24T07:50:17;9.77;;;4.03;;
68273;SDS011;55104;47.356;19.448;2023-04-24T07:53:19;7.40;;;2.90;;
68273;SDS011;55104;47.356;19.448;2023-04-24T07:56:21;11.48;;;3.83;;
68273;SDS011;55104;47.356;19.448;2023-04-24T07:59:23;10.57;;;3.65;;
68273;SDS011;55104;47.356;19.448;2023-04-24T08:02:25;9.82;;;4.07;;
68273;SDS011;55104;47.356;19.448;2023-04-24T08:05:29;9.67;;;3.40;;
68273;SDS011;55104;47.356;19.448;2023-04-24T08:08:31;8.85;;;3.70;;
68273;SDS011;55104;47.356;19.448;2023-04-24T08:11:34;10.02;;;4.15;;
68273;SDS011;55104;47.356;19.448;2023-04-24T08:14:36;7.80;;;2.92;;
68273;SDS011;55104;47.356;19.448;2023-04-24T08:17:38;8.50;;;3.35;;
68273;SDS011;55104;47.356;19.448;2023-04-24T08:20:40;11.57;;;4.13;;
68273;SDS011;55104;47.356;19.448;2023-04-24T08:23:42;10.45;;;4.05;;
68273;SDS011;55104;47.356;19.448;2023-04-24T08:26:45;8.90;;;3.85;;
68273;SDS011;55104;47.356;19.448;2023-04-24T08:29:47;9.45;;;3.63;;
68273;SDS011;55104;47.356;19.448;2023-04-24T08:32:49;8.10;;;3.85;;
68273;SDS011;55104;47.356;19.448;2023-04-24T08:35:51;11.33;;;3.93;;
68273;SDS011;55104;47.356;19.448;2023-04-24T08:38:54;9.10;;;3.80;;
68273;SDS011;55104;47.356;19.448;2023-04-24T08:41:56;10.98;;;4.43;;
68273;SDS011;55104;47.356;19.448;2023-04-24T08:44:59;8.25;;;4.10;;
68273;SDS011;55104;47.356;19.448;2023-04-24T08:48:01;12.82;;;4.30;;
68273;SDS011;55104;47.356;19.448;2023-04-24T08:51:05;8.27;;;3.90;;
68273;SDS011;55104;47.356;19.448;2023-04-24T08:54:09;9.88;;;4.53;;
68273;SDS011;55104;47.356;19.448;2023-04-24T08:57:12;10.65;;;4.25;;
68273;SDS011;55104;47.356;19.448;2023-04-24T09:00:16;9.02;;;3.33;;
68273;SDS011;55104;47.356;19.448;2023-04-24T09:03:18;10.20;;;4.30;;
68273;SDS011;55104;47.356;19.448;2023-04-24T09:06:22;10.27;;;4.33;;
68273;SDS011;55104;47.356;19.448;2023-04-24T09:09:25;9.03;;;4.27;;
68273;SDS011;55104;47.356;19.448;2023-04-24T09:12:27;11.05;;;4.32;;
68273;SDS011;55104;47.356;19.448;2023-04-24T09:15:29;10.70;;;3.70;;
68273;SDS011;55104;47.356;19.448;2023-04-24T09:18:34;9.10;;;4.47;;
68273;SDS011;55104;47.356;19.448;2023-04-24T09:21:36;9.30;;;4.23;;
68273;SDS011;55104;47.356;19.448;2023-04-24T09:24:38;10.57;;;3.60;;
68273;SDS011;55104;47.356;19.448;2023-04-24T09:27:42;9.07;;;4.07;;
68273;SDS011;55104;47.356;19.448;2023-04-24T09:30:51;7.93;;;3.42;;
68273;SDS011;55104;47.356;19.448;2023-04-24T09:34:13;9.52;;;3.58;;
68273;SDS011;55104;47.356;19.448;2023-04-24T09:37:26;7.37;;;3.43;;
68273;SDS011;55104;47.356;19.448;2023-04-24T09:40:30;9.10;;;3.67;;
68273;SDS011;55104;47.356;19.448;2023-04-24T09:43:36;7.80;;;3.15;;
68273;SDS011;55104;47.356;19.448;2023-04-24T09:46:38;7.43;;;2.88;;
68273;SDS011;55104;47.356;19.448;2023-04-24T09:49:40;6.40;;;2.60;;
68273;SDS011;55104;47.356;19.448;2023-04-24T09:52:46;6.23;;;2.73;;
68273;SDS011;55104;47.356;19.448;2023-04-24T09:56:07;6.07;;;2.40;;
68273;SDS011;55104;47.356;19.448;2023-04-24T09:59:10;9.55;;;2.90;;
68273;SDS011;55104;47.356;19.448;2023-04-24T10:02:19;8.25;;;2.75;;
68273;SDS011;55104;47.356;19.448;2023-04-24T10:05:23;7.95;;;2.67;;
68273;SDS011;55104;47.356;19.448;2023-04-24T10:08:35;6.57;;;2.73;;
68273;SDS011;55104;47.356;19.448;2023-04-24T10:11:43;6.37;;;2.53;;
68273;SDS011;55104;47.356;19.448;2023-04-24T10:14:49;7.93;;;2.40;;
68273;SDS011;55104;47.356;19.448;2023-04-24T10:17:52;6.88;;;2.20;;
68273;SDS011;55104;47.356;19.448;2023-04-24T10:20:55;6.80;;;2.35;;
68273;SDS011;55104;47.356;19.448;2023-04-24T10:23:58;8.50;;;2.70;;
68273;SDS011;55104;47.356;19.448;2023-04-24T10:27:01;10.43;;;2.17;;
68273;SDS011;55104;47.356;19.448;2023-04-24T10:30:04;6.55;;;1.92;;
68273;SDS011;55104;47.356;19.448;2023-04-24T10:33:08;6.65;;;2.22;;
68273;SDS011;55104;47.356;19.448;2023-04-24T10:36:10;5.90;;;2.33;;
68273;SDS011;55104;47.356;19.448;2023-04-24T10:39:15;6.57;;;2.13;;
68273;SDS011;55104;47.356;19.448;2023-04-24T10:42:18;7.17;;;3.10;;
68273;SDS011;55104;47.356;19.448;2023-04-24T10:45:21;7.38;;;2.58;;
68273;SDS011;55104;47.356;19.448;2023-04-24T10:48:26;7.03;;;2.00;;
68273;SDS011;55104;47.356;19.448;2023-04-24T10:54:49;5.93;;;2.27;;
68273;SDS011;55104;47.356;19.448;2023-04-24T10:58:04;6.53;;;2.77;;
68273;SDS011;55104;47.356;19.448;2023-04-24T11:01:06;6.90;;;2.45;;
68273;SDS011;55104;47.356;19.448;2023-04-24T11:04:09;8.00;;;2.05;;
68273;SDS011;55104;47.356;19.448;2023-04-24T11:07:12;6.68;;;2.40;;
68273;SDS011;55104;47.356;19.448;2023-04-24T11:10:26;5.93;;;1.73;;
68273;SDS011;55104;47.356;19.448;2023-04-24T11:14:13;6.97;;;1.90;;
68273;SDS011;55104;47.356;19.448;2023-04-24T11:16:57;4.45;;;1.70;;
68273;SDS011;55104;47.356;19.448;2023-04-24T11:20:06;6.05;;;2.28;;
68273;SDS011;55104;47.356;19.448;2023-04-24T11:23:27;6.10;;;2.08;;
68273;SDS011;55104;47.356;19.448;2023-04-24T11:26:38;5.87;;;2.30;;
68273;SDS011;55104;47.356;19.448;2023-04-24T11:32:55;5.15;;;1.92;;
68273;SDS011;55104;47.356;19.448;2023-04-24T11:36:06;8.68;;;2.10;;
68273;SDS011;55104;47.356;19.448;2023-04-24T11:39:09;6.45;;;2.22;;
68273;SDS011;55104;47.356;19.448;2023-04-24T11:42:14;6.03;;;2.23;;
68273;SDS011;55104;47.356;19.448;2023-04-24T11:48:19;7.00;;;2.38;;
68273;SDS011;55104;47.356;19.448;2023-04-24T11:51:25;6.60;;;1.95;;
68273;SDS011;55104;47.356;19.448;2023-04-24T11:54:37;5.95;;;2.05;;
68273;SDS011;55104;47.356;19.448;2023-04-24T11:57:39;4.93;;;1.50;;
68273;SDS011;55104;47.356;19.448;2023-04-24T12:00:46;5.57;;;2.00;;
68273;SDS011;55104;47.356;19.448;2023-04-24T12:04:01;7.28;;;2.15;;
68273;SDS011;55104;47.356;19.448;2023-04-24T12:07:03;5.93;;;1.80;;
68273;SDS011;55104;47.356;19.448;2023-04-24T12:10:07;5.57;;;1.40;;
68273;SDS011;55104;47.356;19.448;2023-04-24T12:13:09;7.97;;;2.00;;
68273;SDS011;55104;47.356;19.448;2023-04-24T12:16:12;7.10;;;1.73;;
68273;SDS011;55104;47.356;19.448;2023-04-24T12:19:20;4.25;;;1.40;;
68273;SDS011;55104;47.356;19.448;2023-04-24T12:22:23;7.32;;;1.30;;
68273;SDS011;55104;47.356;19.448;2023-04-24T12:25:26;5.25;;;1.38;;
68273;SDS011;55104;47.356;19.448;2023-04-24T12:28:36;4.20;;;1.10;;
68273;SDS011;55104;47.356;19.448;2023-04-24T12:31:39;12.47;;;1.90;;
68273;SDS011;55104;47.356;19.448;2023-04-24T12:34:41;4.78;;;1.40;;
68273;SDS011;55104;47.356;19.448;2023-04-24T12:37:45;5.13;;;1.25;;
68273;SDS011;55104;47.356;19.448;2023-04-24T12:41:00;4.28;;;1.30;;
68273;SDS011;55104;47.356;19.448;2023-04-24T12:44:10;5.13;;;1.30;;
68273;SDS011;55104;47.356;19.448;2023-04-24T12:47:12;3.17;;;0.80;;
68273;SDS011;55104;47.356;19.448;2023-04-24T12:50:15;3.88;;;1.05;;
68273;SDS011;55104;47.356;19.448;2023-04-24T12:53:17;3.05;;;0.70;;
68273;SDS011;55104;47.356;19.448;2023-04-24T12:56:19;3.85;;;1.00;;
68273;SDS011;55104;47.356;19.448;2023-04-24T12:59:22;3.80;;;1.00;;
68273;SDS011;55104;47.356;19.448;2023-04-24T13:02:24;4.10;;;1.00;;
68273;SDS011;55104;47.356;19.448;2023-04-24T13:05:28;2.90;;;0.90;;
68273;SDS011;55104;47.356;19.448;2023-04-24T13:08:30;4.82;;;1.05;;
68273;SDS011;55104;47.356;19.448;2023-04-24T13:11:32;2.75;;;0.60;;
68273;SDS011;55104;47.356;19.448;2023-04-24T13:14:35;3.03;;;0.50;;
68273;SDS011;55104;47.356;19.448;2023-04-24T13:17:37;4.30;;;1.10;;
68273;SDS011;55104;47.356;19.448;2023-04-24T13:20:40;2.40;;;0.70;;
68273;SDS011;55104;47.356;19.448;2023-04-24T13:23:43;2.83;;;0.80;;
68273;SDS011;55104;47.356;19.448;2023-04-24T13:26:45;3.80;;;0.90;;
68273;SDS011;55104;47.356;19.448;2023-04-24T13:29:47;3.73;;;1.03;;
68273;SDS011;55104;47.356;19.448;2023-04-24T13:32:49;4.13;;;1.03;;
68273;SDS011;55104;47.356;19.448;2023-04-24T13:35:52;3.47;;;0.80;;
68273;SDS011;55104;47.356;19.448;2023-04-24T13:38:54;2.33;;;0.50;;
68273;SDS011;55104;47.356;19.448;2023-04-24T13:41:56;4.05;;;1.20;;
68273;SDS011;55104;47.356;19.448;2023-04-24T13:44:59;3.53;;;1.00;;
68273;SDS011;55104;47.356;19.448;2023-04-24T13:48:04;3.03;;;0.73;;
68273;SDS011;55104;47.356;19.448;2023-04-24T13:51:06;4.25;;;1.23;;
68273;SDS011;55104;47.356;19.448;2023-04-24T13:54:08;3.70;;;1.00;;
68273;SDS011;55104;47.356;19.448;2023-04-24T13:57:10;2.08;;;0.70;;
68273;SDS011;55104;47.356;19.448;2023-04-24T14:00:12;3.83;;;1.00;;
68273;SDS011;55104;47.356;19.448;2023-04-24T14:03:15;4.18;;;1.10;;
68273;SDS011;55104;47.356;19.448;2023-04-24T14:06:18;3.88;;;1.10;;
68273;SDS011;55104;47.356;19.448;2023-04-24T14:09:21;4.05;;;1.10;;
68273;SDS011;55104;47.356;19.448;2023-04-24T14:12:23;3.95;;;1.23;;
68273;SDS011;55104;47.356;19.448;2023-04-24T14:15:25;4.30;;;1.03;;
68273;SDS011;55104;47.356;19.448;2023-04-24T14:18:27;4.55;;;1.05;;
68273;SDS011;55104;47.356;19.448;2023-04-24T14:21:29;4.25;;;1.35;;
68273;SDS011;55104;47.356;19.448;2023-04-24T14:24:32;5.72;;;2.00;;
68273;SDS011;55104;47.356;19.448;2023-04-24T14:27:34;4.97;;;1.73;;
68273;SDS011;55104;47.356;19.448;2023-04-24T14:30:37;5.90;;;1.83;;
68273;SDS011;55104;47.356;19.448;2023-04-24T14:33:39;5.28;;;1.88;;
68273;SDS011;55104;47.356;19.448;2023-04-24T14:36:41;4.47;;;1.75;;
68273;SDS011;55104;47.356;19.448;2023-04-24T14:39:43;4.80;;;1.67;;
68273;SDS011;55104;47.356;19.448;2023-04-24T14:43:01;5.88;;;2.25;;
68273;SDS011;55104;47.356;19.448;2023-04-24T14:46:04;9.90;;;3.00;;
68273;SDS011;55104;47.356;19.448;2023-04-24T14:49:06;6.93;;;2.15;;
68273;SDS011;55104;47.356;19.448;2023-04-24T14:52:11;4.75;;;1.58;;
68273;SDS011;55104;47.356;19.448;2023-04-24T14:55:16;5.82;;;1.80;;
68273;SDS011;55104;47.356;19.448;2023-04-24T14:58:18;9.65;;;2.38;;
68273;SDS011;55104;47.356;19.448;2023-04-24T15:01:21;7.70;;;2.03;;
68273;SDS011;55104;47.356;19.448;2023-04-24T15:04:23;7.00;;;2.13;;
68273;SDS011;55104;47.356;19.448;2023-04-24T15:07:29;6.00;;;1.98;;
68273;SDS011;55104;47.356;19.448;2023-04-24T15:10:32;5.88;;;1.95;;
68273;SDS011;55104;47.356;19.448;2023-04-24T15:13:35;8.07;;;2.50;;
68273;SDS011;55104;47.356;19.448;2023-04-24T15:16:37;8.53;;;2.20;;
68273;SDS011;55104;47.356;19.448;2023-04-24T15:19:39;7.38;;;3.00;;
68273;SDS011;55104;47.356;19.448;2023-04-24T15:22:41;8.27;;;3.13;;
68273;SDS011;55104;47.356;19.448;2023-04-24T15:25:44;9.52;;;3.40;;
68273;SDS011;55104;47.356;19.448;2023-04-24T15:28:46;8.07;;;2.88;;
68273;SDS011;55104;47.356;19.448;2023-04-24T15:31:49;8.13;;;2.97;;
68273;SDS011;55104;47.356;19.448;2023-04-24T15:34:51;7.80;;;3.28;;
68273;SDS011;55104;47.356;19.448;2023-04-24T15:38:08;5.55;;;2.17;;
68273;SDS011;55104;47.356;19.448;2023-04-24T15:41:11;8.32;;;2.17;;
68273;SDS011;55104;47.356;19.448;2023-04-24T15:44:13;6.72;;;2.33;;
68273;SDS011;55104;47.356;19.448;2023-04-24T15:47:15;7.73;;;2.00;;
68273;SDS011;55104;47.356;19.448;2023-04-24T15:50:18;5.57;;;2.13;;
68273;SDS011;55104;47.356;19.448;2023-04-24T15:53:22;6.00;;;1.77;;
68273;SDS011;55104;47.356;19.448;2023-04-24T15:56:24;7.15;;;2.78;;
68273;SDS011;55104;47.356;19.448;2023-04-24T15:59:26;7.20;;;2.25;;
68273;SDS011;55104;47.356;19.448;2023-04-24T16:02:30;5.50;;;1.60;;
68273;SDS011;55104;47.356;19.448;2023-04-24T16:05:33;5.88;;;2.10;;
68273;SDS011;55104;47.356;19.448;2023-04-24T16:08:35;7.47;;;2.58;;
68273;SDS011;55104;47.356;19.448;2023-04-24T16:11:37;9.55;;;4.13;;
68273;SDS011;55104;47.356;19.448;2023-04-24T16:14:40;10.75;;;3.75;;
68273;SDS011;55104;47.356;19.448;2023-04-24T16:17:42;11.37;;;3.67;;
68273;SDS011;55104;47.356;19.448;2023-04-24T16:20:45;8.65;;;2.65;;
68273;SDS011;55104;47.356;19.448;2023-04-24T16:23:48;9.93;;;3.30;;
68273;SDS011;55104;47.356;19.448;2023-04-24T16:26:50;10.73;;;4.03;;
68273;SDS011;55104;47.356;19.448;2023-04-24T16:29:53;8.23;;;3.58;;
68273;SDS011;55104;47.356;19.448;2023-04-24T16:32:57;8.90;;;3.50;;
68273;SDS011;55104;47.356;19.448;2023-04-24T16:35:59;10.32;;;4.07;;
68273;SDS011;55104;47.356;19.448;2023-04-24T16:39:02;8.82;;;3.75;;
68273;SDS011;55104;47.356;19.448;2023-04-24T16:42:06;15.40;;;4.45;;
68273;SDS011;55104;47.356;19.448;2023-04-24T16:45:08;11.02;;;3.75;;
68273;SDS011;55104;47.356;19.448;2023-04-24T16:48:10;15.67;;;4.20;;
68273;SDS011;55104;47.356;19.448;2023-04-24T16:51:13;9.93;;;4.07;;
68273;SDS011;55104;47.356;19.448;2023-04-24T16:54:15;8.88;;;3.33;;
68273;SDS011;55104;47.356;19.448;2023-04-24T16:57:17;8.60;;;2.97;;
68273;SDS011;55104;47.356;19.448;2023-04-24T17:00:19;9.40;;;2.88;;
68273;SDS011;55104;47.356;19.448;2023-04-24T17:03:21;7.20;;;2.67;;
68273;SDS011;55104;47.356;19.448;2023-04-24T17:06:24;9.25;;;3.47;;
68273;SDS011;55104;47.356;19.448;2023-04-24T17:09:27;10.30;;;2.28;;
68273;SDS011;55104;47.356;19.448;2023-04-24T17:12:29;6.47;;;1.73;;
68273;SDS011;55104;47.356;19.448;2023-04-24T17:15:31;7.25;;;1.90;;
68273;SDS011;55104;47.356;19.448;2023-04-24T17:18:34;7.37;;;2.23;;
68273;SDS011;55104;47.356;19.448;2023-04-24T17:21:36;6.30;;;2.08;;
68273;SDS011;55104;47.356;19.448;2023-04-24T17:24:38;5.22;;;1.60;;
68273;SDS011;55104;47.356;19.448;2023-04-24T17:27:40;4.07;;;1.25;;
68273;SDS011;55104;47.356;19.448;2023-04-24T17:30:43;3.75;;;1.23;;
68273;SDS011;55104;47.356;19.448;2023-04-24T17:33:45;8.57;;;2.23;;
68273;SDS011;55104;47.356;19.448;2023-04-24T17:36:47;9.98;;;3.13;;
68273;SDS011;55104;47.356;19.448;2023-04-24T17:39:49;7.75;;;2.90;;
68273;SDS011;55104;47.356;19.448;2023-04-24T17:42:51;6.07;;;2.25;;
68273;SDS011;55104;47.356;19.448;2023-04-24T17:45:53;6.85;;;2.10;;
68273;SDS011;55104;47.356;19.448;2023-04-24T17:48:57;5.73;;;1.93;;
68273;SDS011;55104;47.356;19.448;2023-04-24T17:51:59;5.05;;;1.42;;
68273;SDS011;55104;47.356;19.448;2023-04-24T17:55:01;6.40;;;1.80;;
68273;SDS011;55104;47.356;19.448;2023-04-24T17:58:03;7.40;;;2.30;;
68273;SDS011;55104;47.356;19.448;2023-04-24T18:01:06;6.60;;;2.20;;
68273;SDS011;55104;47.356;19.448;2023-04-24T18:04:08;9.77;;;3.03;;
68273;SDS011;55104;47.356;19.448;2023-04-24T18:07:11;14.63;;;5.13;;
68273;SDS011;55104;47.356;19.448;2023-04-24T18:10:14;10.48;;;4.22;;
68273;SDS011;55104;47.356;19.448;2023-04-24T18:13:16;6.32;;;2.55;;
68273;SDS011;55104;47.356;19.448;2023-04-24T18:16:18;9.50;;;2.75;;
68273;SDS011;55104;47.356;19.448;2023-04-24T18:19:20;7.30;;;2.80;;